createdAt,value
2019-03-17T00:00:04.888Z,99828.79
2019-03-17T00:02:35.328Z,99836.27
2019-03-17T00:05:06.610Z,99836.91
2019-03-17T00:07:36.942Z,99832.37
2019-03-17T00:10:07.903Z,99828.17
2019-03-17T00:12:38.768Z,99828.86
2019-03-17T00:15:09.622Z,99839.00
2019-03-17T00:17:41.870Z,99836.03
2019-03-17T00:20:12.546Z,99835.50
2019-03-17T00:22:43.300Z,99842.04
2019-03-17T00:25:14.069Z,99834.80
2019-03-17T00:27:44.909Z,99836.17
2019-03-17T00:30:15.770Z,99840.91
2019-03-17T00:32:46.642Z,99850.13
2019-03-17T00:35:17.393Z,99833.69
2019-03-17T00:37:48.963Z,99842.60
2019-03-17T00:40:19.700Z,99843.51
2019-03-17T00:42:50.456Z,99847.20
2019-03-17T00:45:21.330Z,99841.48
2019-03-17T00:47:52.082Z,99848.97
2019-03-17T00:50:22.737Z,99852.70
2019-03-17T00:52:53.268Z,99858.41
2019-03-17T00:55:24.138Z,99860.98
2019-03-17T00:57:54.893Z,99863.09
2019-03-17T01:00:25.631Z,99873.17
2019-03-17T01:02:56.300Z,99877.66
2019-03-17T01:05:27.154Z,99878.49
2019-03-17T01:07:57.940Z,99886.70
2019-03-17T01:10:28.648Z,99887.43
2019-03-17T01:12:59.520Z,99891.27
2019-03-17T01:15:30.375Z,99886.55
2019-03-17T01:18:01.130Z,99894.58
2019-03-17T01:20:31.780Z,99895.93
2019-03-17T01:23:02.516Z,99905.23
2019-03-17T01:25:33.289Z,99908.02
2019-03-17T01:28:04.045Z,99914.16
2019-03-17T01:30:34.693Z,99917.72
2019-03-17T01:33:05.548Z,99917.72
2019-03-17T01:35:36.292Z,99915.83
2019-03-17T01:38:08.079Z,99917.50
2019-03-17T01:40:38.837Z,99915.81
2019-03-17T01:43:09.590Z,99919.88
2019-03-17T01:45:40.444Z,99916.00
2019-03-17T01:48:11.233Z,99925.83
2019-03-17T01:50:41.946Z,99923.59
2019-03-17T01:53:12.688Z,99931.87
2019-03-17T01:55:43.563Z,99940.85
2019-03-17T01:58:14.314Z,99938.28
2019-03-17T02:00:44.967Z,99932.80
2019-03-17T02:03:15.721Z,99935.37
2019-03-17T02:05:46.478Z,99940.24
2019-03-17T02:08:17.229Z,99939.75
2019-03-17T02:10:47.860Z,99949.59
2019-03-17T02:13:18.734Z,99936.98
2019-03-17T02:15:49.488Z,99944.41
2019-03-17T02:18:20.243Z,99945.31
2019-03-17T02:20:51.099Z,99949.42
2019-03-17T02:23:21.954Z,99950.14
2019-03-17T02:25:52.709Z,99961.16
2019-03-17T02:28:23.361Z,99963.45
2019-03-17T02:30:54.215Z,99963.45
2019-03-17T02:33:24.984Z,99974.11
2019-03-17T02:35:55.751Z,99975.18
2019-03-17T02:38:27.707Z,99986.91
2019-03-17T02:40:58.563Z,99984.83
2019-03-17T02:43:29.524Z,99991.38
2019-03-17T02:46:02.983Z,99994.23
2019-03-17T02:48:32.467Z,99994.89
2019-03-17T02:51:03.321Z,99996.46
2019-03-17T02:53:34.069Z,100001.63
2019-03-17T02:56:04.709Z,100009.40
2019-03-17T02:58:35.469Z,100009.50
2019-03-17T03:01:06.333Z,100013.37
2019-03-17T03:03:36.945Z,100022.30
2019-03-17T03:06:07.841Z,100026.86
2019-03-17T03:08:38.578Z,100027.03
2019-03-17T03:11:09.452Z,100037.95
2019-03-17T03:13:40.222Z,100041.95
2019-03-17T03:16:10.841Z,100045.19
2019-03-17T03:18:41.611Z,100053.95
2019-03-17T03:21:12.466Z,100048.04
2019-03-17T03:23:43.221Z,100049.83
2019-03-17T03:26:13.872Z,100051.39
2019-03-17T03:28:44.607Z,100042.72
2019-03-17T03:31:15.353Z,100055.25
2019-03-17T03:33:46.035Z,100061.00
2019-03-17T03:36:16.687Z,100068.34
2019-03-17T03:38:48.338Z,100074.85
2019-03-17T03:41:18.897Z,100073.91
2019-03-17T03:43:49.866Z,100074.81
2019-03-17T03:46:20.622Z,100072.83
2019-03-17T03:48:51.372Z,100080.56
2019-03-17T03:51:21.903Z,100083.19
2019-03-17T03:53:52.778Z,100088.34
2019-03-17T03:56:23.531Z,100085.74
2019-03-17T03:58:54.288Z,100090.92
2019-03-17T04:01:24.937Z,100102.34
2019-03-17T04:03:55.794Z,100100.17
2019-03-17T04:06:27.236Z,100103.62
2019-03-17T04:08:58.022Z,100104.77
2019-03-17T04:11:28.775Z,100115.28
2019-03-17T04:13:59.522Z,100118.58
2019-03-17T04:16:30.380Z,100122.59
2019-03-17T04:19:01.117Z,100127.63
2019-03-17T04:21:31.770Z,100128.39
2019-03-17T04:24:01.734Z,100133.02
2019-03-17T04:26:32.253Z,100134.45
2019-03-17T04:29:02.907Z,100135.16
2019-03-17T04:31:32.875Z,100126.00
2019-03-17T04:34:03.406Z,100136.61
2019-03-17T04:36:40.153Z,100147.30
2019-03-17T04:39:06.869Z,100147.75
2019-03-17T04:41:37.203Z,100157.92
2019-03-17T04:44:20.046Z,100161.72
2019-03-17T04:46:40.430Z,100162.04
2019-03-17T04:49:11.284Z,100173.47
2019-03-17T04:51:42.060Z,100172.52
2019-03-17T04:54:12.796Z,100171.23
2019-03-17T04:56:43.548Z,100184.45
2019-03-17T04:59:14.420Z,100186.39
2019-03-17T05:01:45.176Z,100185.76
2019-03-17T05:04:15.807Z,100184.70
2019-03-17T05:06:52.762Z,100197.76
2019-03-17T05:09:18.662Z,100201.55
2019-03-17T05:11:49.418Z,100207.55
2019-03-17T05:14:20.170Z,100207.47
2019-03-17T05:16:50.824Z,100215.34
2019-03-17T05:19:21.683Z,100218.44
2019-03-17T05:21:52.435Z,100224.96
2019-03-17T05:24:23.186Z,100226.13
2019-03-17T05:26:54.043Z,100227.45
2019-03-17T05:29:24.902Z,100237.19
2019-03-17T05:31:55.656Z,100244.34
2019-03-17T05:34:26.303Z,100250.17
2019-03-17T05:37:05.933Z,100256.48
2019-03-17T05:39:30.572Z,100267.55
2019-03-17T05:42:01.325Z,100272.83
2019-03-17T05:44:32.182Z,100272.16
2019-03-17T05:47:03.042Z,100275.33
2019-03-17T05:49:33.795Z,100277.27
2019-03-17T05:52:04.429Z,100288.59
2019-03-17T05:54:34.607Z,100282.88
2019-03-17T05:57:05.135Z,100293.29
2019-03-17T05:59:35.787Z,100296.05
2019-03-17T06:02:06.642Z,100301.63
2019-03-17T06:04:37.482Z,100312.92
2019-03-17T06:07:18.018Z,100312.11
2019-03-17T06:09:40.232Z,100310.97
2019-03-17T06:12:11.091Z,100314.77
2019-03-17T06:14:41.946Z,100319.11
2019-03-17T06:17:12.702Z,100318.45
2019-03-17T06:19:43.351Z,100326.25
2019-03-17T06:22:14.091Z,100328.47
2019-03-17T06:24:44.861Z,100334.30
2019-03-17T06:27:15.616Z,100333.97
2019-03-17T06:29:46.246Z,100346.41
2019-03-17T06:32:17.120Z,100334.66
2019-03-17T06:34:47.875Z,100341.89
2019-03-17T06:37:30.194Z,100345.39
2019-03-17T06:39:51.633Z,100346.77
2019-03-17T06:42:22.386Z,100344.11
2019-03-17T06:44:53.345Z,100349.89
2019-03-17T06:47:24.096Z,100352.00
2019-03-17T06:49:54.836Z,100362.97
2019-03-17T06:52:25.490Z,100363.25
2019-03-17T06:54:56.358Z,100359.46
2019-03-17T06:57:27.880Z,100363.95
2019-03-17T07:00:00.526Z,100362.96
2019-03-17T07:02:31.281Z,100368.27
2019-03-17T07:05:01.919Z,100365.19
2019-03-17T07:07:43.305Z,100377.39
2019-03-17T07:10:06.204Z,100368.42
2019-03-17T07:12:37.057Z,100378.53
2019-03-17T07:15:10.053Z,100386.20
2019-03-17T07:17:40.816Z,100390.75
2019-03-17T07:20:13.721Z,100393.30
2019-03-17T07:22:44.358Z,100396.30
2019-03-17T07:25:15.123Z,100394.52
2019-03-17T07:27:45.772Z,100405.75
2019-03-17T07:30:17.345Z,100400.13
2019-03-17T07:32:47.776Z,100394.72
2019-03-17T07:35:17.853Z,100402.02
2019-03-17T07:37:56.873Z,100405.61
2019-03-17T07:40:21.383Z,100412.12
2019-03-17T07:42:52.140Z,100412.95
2019-03-17T07:45:21.959Z,100411.83
2019-03-17T07:47:52.411Z,100418.17
2019-03-17T07:50:29.052Z,100422.44
2019-03-17T07:53:01.392Z,100420.44
2019-03-17T07:55:32.046Z,100423.09
2019-03-17T07:58:02.780Z,100434.72
2019-03-17T08:00:33.657Z,100432.17
2019-03-17T08:03:04.408Z,100432.48
2019-03-17T08:05:35.064Z,100439.33
2019-03-17T08:08:09.592Z,100432.30
2019-03-17T08:10:37.998Z,100434.72
2019-03-17T08:13:08.752Z,100444.64
2019-03-17T08:15:39.511Z,100442.09
2019-03-17T08:18:10.362Z,100437.39
2019-03-17T08:20:41.114Z,100448.38
2019-03-17T08:23:11.956Z,100458.78
2019-03-17T08:25:41.826Z,100459.21
2019-03-17T08:28:12.336Z,100468.38
2019-03-17T08:30:52.491Z,100469.54
2019-03-17T08:33:14.170Z,100470.28
2019-03-17T08:35:45.134Z,100475.46
2019-03-17T08:38:21.787Z,100479.67
2019-03-17T08:40:49.213Z,100488.30
2019-03-17T08:43:20.048Z,100484.55
2019-03-17T08:45:50.912Z,100484.78
2019-03-17T08:48:21.455Z,100487.89
2019-03-17T08:50:53.829Z,100489.98
2019-03-17T08:53:24.705Z,100483.67
2019-03-17T08:55:55.484Z,100494.84
2019-03-17T08:58:26.292Z,100503.91
2019-03-17T09:00:56.859Z,100505.14
2019-03-17T09:03:27.714Z,100506.34
2019-03-17T09:05:58.350Z,100507.48
2019-03-17T09:08:34.862Z,100518.16
2019-03-17T09:11:00.694Z,100515.01
2019-03-17T09:13:30.439Z,100513.08
2019-03-17T09:16:00.959Z,100518.38
2019-03-17T09:18:31.728Z,100522.48
2019-03-17T09:21:02.382Z,100525.85
2019-03-17T09:23:33.235Z,100524.48
2019-03-17T09:26:03.987Z,100524.23
2019-03-17T09:28:39.345Z,100525.25
2019-03-17T09:31:10.199Z,100531.48
2019-03-17T09:33:41.132Z,100530.21
2019-03-17T09:36:11.895Z,100534.98
2019-03-17T09:38:47.625Z,100537.72
2019-03-17T09:41:15.876Z,100542.66
2019-03-17T09:43:46.715Z,100552.30
2019-03-17T09:46:17.587Z,100557.33
2019-03-17T09:48:48.235Z,100557.89
2019-03-17T09:51:18.975Z,100567.40
2019-03-17T09:53:49.955Z,100561.69
2019-03-17T09:56:19.808Z,100560.02
2019-03-17T09:58:50.334Z,100560.55
2019-03-17T10:01:21.087Z,100569.06
2019-03-17T10:03:51.842Z,100566.41
2019-03-17T10:06:22.887Z,100569.73
2019-03-17T10:08:59.865Z,100572.84
2019-03-17T10:11:25.639Z,100567.30
2019-03-17T10:13:56.393Z,100577.83
2019-03-17T10:16:27.247Z,100578.89
2019-03-17T10:18:58.087Z,100582.97
2019-03-17T10:21:28.757Z,100585.41
2019-03-17T10:23:59.412Z,100583.45
2019-03-17T10:26:30.144Z,100585.73
2019-03-17T10:29:01.405Z,100591.61
2019-03-17T10:31:32.082Z,100584.75
2019-03-17T10:34:02.935Z,100591.56
2019-03-17T10:36:33.689Z,100592.98
2019-03-17T10:39:12.416Z,100594.57
2019-03-17T10:41:40.821Z,100587.05
2019-03-17T10:44:11.268Z,100596.69
2019-03-17T10:46:41.903Z,100593.55
2019-03-17T10:49:12.777Z,100599.80
2019-03-17T10:51:43.617Z,100592.31
2019-03-17T10:54:17.344Z,100606.69
2019-03-17T10:56:48.009Z,100598.88
2019-03-17T10:59:18.843Z,100602.52
2019-03-17T11:01:49.716Z,100615.81
2019-03-17T11:04:19.466Z,100611.15
2019-03-17T11:06:50.216Z,100609.80
2019-03-17T11:09:25.436Z,100616.64
2019-03-17T11:11:53.343Z,100620.50
2019-03-17T11:14:23.994Z,100628.36
2019-03-17T11:16:53.846Z,100635.52
2019-03-17T11:19:25.679Z,100630.41
2019-03-17T11:21:56.712Z,100630.41
2019-03-17T11:24:27.217Z,100636.72
2019-03-17T11:26:58.152Z,100643.27
2019-03-17T11:29:28.810Z,100638.58
2019-03-17T11:31:59.683Z,100648.45
2019-03-17T11:34:30.316Z,100646.73
2019-03-17T11:37:01.093Z,100647.97
2019-03-17T11:39:37.644Z,100657.05
2019-03-17T11:42:05.052Z,100650.66
2019-03-17T11:44:35.891Z,100648.19
2019-03-17T11:47:08.197Z,100649.09
2019-03-17T11:49:38.831Z,100658.52
2019-03-17T11:52:09.499Z,100652.91
2019-03-17T11:54:40.354Z,100659.89
2019-03-17T11:57:11.317Z,100666.20
2019-03-17T11:59:41.966Z,100672.10
2019-03-17T12:02:25.697Z,100672.16
2019-03-17T12:04:51.016Z,100667.17
2019-03-17T12:07:21.576Z,100679.58
2019-03-17T12:09:51.545Z,100688.27
2019-03-17T12:12:21.953Z,100688.44
2019-03-17T12:14:52.626Z,100699.36
2019-03-17T12:17:22.576Z,100711.53
2019-03-17T12:19:53.110Z,100711.34
2019-03-17T12:22:23.789Z,100711.23
2019-03-17T12:24:54.498Z,100717.77
2019-03-17T12:27:24.474Z,100717.92
2019-03-17T12:29:54.979Z,100716.30
2019-03-17T12:32:25.060Z,100724.92
2019-03-17T12:34:55.586Z,100730.94
2019-03-17T12:37:25.649Z,100736.75
2019-03-17T12:40:02.538Z,100735.94
2019-03-17T12:42:28.254Z,100734.37
2019-03-17T12:44:59.018Z,100739.97
2019-03-17T12:47:29.967Z,100740.23
2019-03-17T12:49:59.718Z,100738.34
2019-03-17T12:52:30.231Z,100739.28
2019-03-17T12:55:00.359Z,100748.17
2019-03-17T12:57:30.936Z,100743.47
2019-03-17T13:00:01.001Z,100747.33
2019-03-17T13:02:31.303Z,100744.52
2019-03-17T13:05:01.751Z,100745.11
2019-03-17T13:07:31.719Z,100753.56
2019-03-17T13:10:14.539Z,100765.01
2019-03-17T13:12:34.337Z,100750.30
2019-03-17T13:15:05.217Z,100752.37
2019-03-17T13:17:35.432Z,100753.59
2019-03-17T13:20:15.010Z,100754.99
2019-03-17T13:22:45.312Z,100750.89
2019-03-17T13:25:15.281Z,100744.00
2019-03-17T13:27:45.711Z,100758.14
2019-03-17T13:30:17.107Z,100764.44
2019-03-17T13:32:47.533Z,100764.30
2019-03-17T13:35:17.589Z,100760.64
2019-03-17T13:37:48.112Z,100768.69
2019-03-17T13:40:29.295Z,100778.12
2019-03-17T13:42:54.617Z,100771.97
2019-03-17T13:45:25.168Z,100787.47
2019-03-17T13:47:55.815Z,100784.67
2019-03-17T13:50:25.896Z,100793.89
2019-03-17T13:52:56.310Z,100789.46
2019-03-17T13:55:26.483Z,100793.09
2019-03-17T13:58:01.595Z,100791.28
2019-03-17T14:00:31.960Z,100802.22
2019-03-17T14:03:02.594Z,100794.70
2019-03-17T14:05:39.567Z,100797.46
2019-03-17T14:08:11.991Z,100802.53
2019-03-17T14:10:42.322Z,100807.31
2019-03-17T14:13:12.398Z,100816.06
2019-03-17T14:15:42.923Z,100829.70
2019-03-17T14:18:12.780Z,100826.38
2019-03-17T14:20:43.083Z,100836.95
2019-03-17T14:23:13.841Z,100837.14
2019-03-17T14:25:44.708Z,100841.55
2019-03-17T14:28:15.241Z,100842.41
2019-03-17T14:30:45.324Z,100855.64
2019-03-17T14:33:15.851Z,100852.94
2019-03-17T14:35:46.616Z,100857.53
2019-03-17T14:38:17.045Z,100857.34
2019-03-17T14:40:53.196Z,100867.39
2019-03-17T14:43:19.780Z,100867.70
2019-03-17T14:45:50.433Z,100875.53
2019-03-17T14:48:21.273Z,100869.02
2019-03-17T14:50:51.840Z,100881.44
2019-03-17T14:53:21.688Z,100875.65
2019-03-17T14:55:52.227Z,100889.44
2019-03-17T14:58:22.284Z,100891.13
2019-03-17T15:00:52.808Z,100900.63
2019-03-17T15:03:23.462Z,100896.72
2019-03-17T15:05:54.215Z,100901.77
2019-03-17T15:08:24.867Z,100901.80
2019-03-17T15:11:05.241Z,100904.72
2019-03-17T15:13:27.907Z,100910.38
2019-03-17T15:16:03.105Z,100917.15
2019-03-17T15:18:30.745Z,100923.12
2019-03-17T15:21:04.674Z,100921.75
2019-03-17T15:23:35.528Z,100926.92
2019-03-17T15:26:06.160Z,100936.13
2019-03-17T15:28:36.246Z,100936.78
2019-03-17T15:31:11.902Z,100940.91
2019-03-17T15:33:41.916Z,100950.09
2019-03-17T15:36:12.450Z,100959.61
2019-03-17T15:38:43.119Z,100964.97
2019-03-17T15:41:18.929Z,100967.88
2019-03-17T15:43:47.107Z,100971.83
2019-03-17T15:46:17.940Z,100972.31
2019-03-17T15:48:49.008Z,100979.18
2019-03-17T15:51:22.093Z,100981.94
2019-03-17T15:53:52.947Z,100987.16
2019-03-17T15:56:23.815Z,100985.79
2019-03-17T15:58:54.568Z,100993.90
2019-03-17T16:01:25.222Z,100991.62
2019-03-17T16:03:55.957Z,100991.02
2019-03-17T16:06:27.224Z,101000.83
2019-03-17T16:08:57.677Z,100999.28
2019-03-17T16:11:31.109Z,101015.38
2019-03-17T16:14:00.648Z,101012.16
2019-03-17T16:16:31.379Z,101012.94
2019-03-17T16:19:02.013Z,101016.76
2019-03-17T16:21:33.112Z,101017.06
2019-03-17T16:24:03.644Z,101017.84
2019-03-17T16:26:34.501Z,101023.34
2019-03-17T16:29:04.949Z,101027.01
2019-03-17T16:31:34.897Z,101032.99
2019-03-17T16:34:05.435Z,101033.16
2019-03-17T16:36:36.555Z,101034.84
2019-03-17T16:39:07.929Z,101041.27
2019-03-17T16:41:43.718Z,101043.11
2019-03-17T16:44:12.648Z,101042.95
2019-03-17T16:46:42.986Z,101043.55
2019-03-17T16:49:14.014Z,101047.24
2019-03-17T16:51:44.068Z,101053.19
2019-03-17T16:54:14.205Z,101055.35
2019-03-17T16:56:44.963Z,101048.77
2019-03-17T16:59:15.614Z,101050.92
2019-03-17T17:01:54.362Z,101064.85
2019-03-17T17:04:27.165Z,101064.52
2019-03-17T17:06:58.102Z,101075.23
2019-03-17T17:09:28.469Z,101071.43
2019-03-17T17:11:58.527Z,101087.02
2019-03-17T17:14:29.039Z,101087.92
2019-03-17T17:16:59.710Z,101095.58
2019-03-17T17:19:30.559Z,101097.27
2019-03-17T17:22:01.320Z,101095.42
2019-03-17T17:24:32.069Z,101095.13
2019-03-17T17:27:02.719Z,101106.59
2019-03-17T17:29:33.371Z,101098.94
2019-03-17T17:32:04.231Z,101099.09
2019-03-17T17:34:34.864Z,101113.02
2019-03-17T17:37:06.125Z,101114.53
2019-03-17T17:39:36.900Z,101119.43
2019-03-17T17:42:09.913Z,101120.01
2019-03-17T17:44:40.040Z,101124.91
2019-03-17T17:47:10.880Z,101121.70
2019-03-17T17:49:41.654Z,101125.20
2019-03-17T17:52:12.305Z,101134.19
2019-03-17T17:54:43.162Z,101130.82
2019-03-17T17:57:13.900Z,101129.41
2019-03-17T17:59:44.547Z,101130.17
2019-03-17T18:02:14.625Z,101133.20
2019-03-17T18:04:45.154Z,101130.27
2019-03-17T18:07:15.907Z,101135.89
2019-03-17T18:09:46.764Z,101138.14
2019-03-17T18:12:21.258Z,101136.41
2019-03-17T18:14:49.703Z,101143.08
2019-03-17T18:17:20.353Z,101137.08
2019-03-17T18:19:51.211Z,101144.64
2019-03-17T18:22:21.969Z,101152.70
2019-03-17T18:24:52.720Z,101149.75
2019-03-17T18:27:23.372Z,101159.33
2019-03-17T18:29:54.106Z,101151.39
2019-03-17T18:32:24.979Z,101159.44
2019-03-17T18:34:55.613Z,101161.37
2019-03-17T18:37:25.703Z,101176.16
2019-03-17T18:39:56.218Z,101174.65
2019-03-17T18:42:33.057Z,101177.69
2019-03-17T18:44:59.156Z,101182.89
2019-03-17T18:47:30.013Z,101186.37
2019-03-17T18:50:00.860Z,101187.07
2019-03-17T18:52:31.216Z,101189.12
2019-03-17T18:55:01.177Z,101193.09
2019-03-17T18:57:31.698Z,101195.73
2019-03-17T19:00:04.415Z,101200.22
2019-03-17T19:02:34.733Z,101196.52
2019-03-17T19:05:05.510Z,101200.66
2019-03-17T19:07:35.738Z,101203.82
2019-03-17T19:10:08.372Z,101199.22
2019-03-17T19:12:45.560Z,101210.48
2019-03-17T19:15:24.959Z,101208.96
2019-03-17T19:17:55.714Z,101206.65
2019-03-17T19:20:26.485Z,101213.26
2019-03-17T19:22:57.121Z,101213.31
2019-03-17T19:25:27.992Z,101206.72
2019-03-17T19:27:59.771Z,101206.36
2019-03-17T19:30:30.811Z,101206.93
2019-03-17T19:33:01.462Z,101206.86
2019-03-17T19:35:32.134Z,101200.02
2019-03-17T19:38:02.991Z,101194.47
2019-03-17T19:40:33.725Z,101199.59
2019-03-17T19:43:04.498Z,101195.83
2019-03-17T19:45:35.455Z,101198.90
2019-03-17T19:48:06.312Z,101198.10
2019-03-17T19:50:37.251Z,101202.14
2019-03-17T19:53:10.870Z,101197.86
2019-03-17T19:55:41.728Z,101206.56
2019-03-17T19:58:12.497Z,101205.14
2019-03-17T20:00:43.131Z,101209.30
2019-03-17T20:03:14.005Z,101204.52
2019-03-17T20:05:44.769Z,101214.23
2019-03-17T20:08:15.514Z,101209.09
2019-03-17T20:10:46.146Z,101209.60
2019-03-17T20:13:17.019Z,101210.61
2019-03-17T20:15:47.776Z,101211.62
2019-03-17T20:18:18.408Z,101219.72
2019-03-17T20:20:48.484Z,101220.31
2019-03-17T20:23:21.418Z,101217.63
2019-03-17T20:25:51.180Z,101224.19
2019-03-17T20:28:21.939Z,101228.78
2019-03-17T20:30:52.809Z,101229.96
2019-03-17T20:33:23.443Z,101233.70
2019-03-17T20:35:53.519Z,101235.05
2019-03-17T20:38:24.047Z,101233.14
2019-03-17T20:40:53.995Z,101233.45
2019-03-17T20:43:34.763Z,101228.53
2019-03-17T20:45:57.620Z,101226.39
2019-03-17T20:48:28.270Z,101225.08
2019-03-17T20:50:59.936Z,101230.63
2019-03-17T20:53:30.510Z,101226.52
2019-03-17T20:56:01.267Z,101233.70
2019-03-17T20:58:32.135Z,101235.59
2019-03-17T21:01:03.066Z,101242.27
2019-03-17T21:03:33.835Z,101242.33
2019-03-17T21:06:04.469Z,101251.66
2019-03-17T21:08:35.220Z,101251.13
2019-03-17T21:11:05.995Z,101247.03
2019-03-17T21:13:46.178Z,101249.44
2019-03-17T21:16:08.730Z,101248.38
2019-03-17T21:18:39.371Z,101258.75
2019-03-17T21:21:10.219Z,101254.37
2019-03-17T21:23:40.873Z,101252.05
2019-03-17T21:26:11.643Z,101256.33
2019-03-17T21:28:42.294Z,101258.13
2019-03-17T21:31:13.029Z,101267.02
2019-03-17T21:33:43.903Z,101270.22
2019-03-17T21:36:14.640Z,101276.31
2019-03-17T21:38:45.293Z,101269.86
2019-03-17T21:41:17.292Z,101274.19
2019-03-17T21:43:58.964Z,101271.61
2019-03-17T21:46:21.661Z,101276.67
2019-03-17T21:48:52.413Z,101274.79
2019-03-17T21:51:23.370Z,101272.59
2019-03-17T21:53:54.226Z,101278.63
2019-03-17T21:56:25.170Z,101283.67
2019-03-17T21:58:55.843Z,101290.86
2019-03-17T22:01:26.696Z,101287.66
2019-03-17T22:03:57.555Z,101294.81
2019-03-17T22:06:28.298Z,101298.09
2019-03-17T22:08:59.106Z,101310.67
2019-03-17T22:11:30.015Z,101309.48
2019-03-17T22:14:11.600Z,101307.20
2019-03-17T22:16:32.855Z,101310.41
2019-03-17T22:19:06.353Z,101310.59
2019-03-17T22:21:37.225Z,101315.20
2019-03-17T22:24:07.979Z,101322.20
2019-03-17T22:26:38.714Z,101318.17
2019-03-17T22:29:09.264Z,101318.47
2019-03-17T22:31:40.252Z,101322.47
2019-03-17T22:34:10.698Z,101321.77
2019-03-17T22:36:41.424Z,101327.25
2019-03-17T22:39:12.098Z,101329.20
2019-03-17T22:41:42.932Z,101333.91
2019-03-17T22:44:23.919Z,101333.94
2019-03-17T22:46:46.807Z,101339.00
2019-03-17T22:49:17.663Z,101342.05
2019-03-17T22:51:48.399Z,101348.03
2019-03-17T22:54:19.066Z,101347.39
2019-03-17T22:56:49.938Z,101351.70
2019-03-17T22:59:20.682Z,101358.00
2019-03-17T23:01:51.433Z,101350.19
2019-03-17T23:04:22.496Z,101348.39
2019-03-17T23:06:52.819Z,101355.17
2019-03-17T23:09:23.592Z,101352.42
2019-03-17T23:11:54.346Z,101356.51
2019-03-17T23:14:36.107Z,101361.04
2019-03-17T23:16:57.386Z,101364.55
2019-03-17T23:19:28.141Z,101360.02
2019-03-17T23:21:58.894Z,101365.17
2019-03-17T23:24:29.854Z,101363.69
2019-03-17T23:26:59.810Z,101370.22
2019-03-17T23:29:30.338Z,101367.30
2019-03-17T23:32:01.197Z,101373.43
2019-03-17T23:34:31.946Z,101371.88
2019-03-17T23:37:02.690Z,101373.47
2019-03-17T23:39:33.557Z,101368.92
2019-03-17T23:42:04.312Z,101371.50
2019-03-17T23:44:34.962Z,101370.88
2019-03-17T23:47:07.538Z,101383.19
2019-03-17T23:49:38.314Z,101377.05
2019-03-17T23:52:09.046Z,101387.72
2019-03-17T23:54:39.801Z,101384.56
2019-03-17T23:57:10.674Z,101387.63
2019-03-17T23:59:41.434Z,101389.00
